| Date | Time | Temp. (oF) | Dew Point (oF) | Rel. Hum. (%) | Press. (in.) | Wind Dir. | Wind Speed (mph) | Hourly Rainfall (in.) |
|
|---|---|---|---|---|---|---|---|---|---|
| 1 | 07/27 | 00:00 | 72 | 68 | 90 | 29.94 | S | 1 | 0.00 |
| 2 | 07/26 | 23:00 | 74 | 69 | 87 | 29.94 | SSW | 2 | 0.00 |
| 3 | 07/26 | 22:00 | 75 | 69 | 82 | 29.93 | SSE | 2 | 0.00 |
| 4 | 07/26 | 21:00 | 78 | 69 | 76 | 29.90 | SSE | 1 | 0.00 |
| 5 | 07/26 | 20:00 | 82 | 68 | 63 | 29.88 | SSE | 1 | 0.00 |
| 6 | 07/26 | 19:00 | 84 | 68 | 59 | 29.87 | SSW | 1 | 0.00 |
| 7 | 07/26 | 18:00 | 86 | 67 | 54 | 29.87 | SE | 2 | 0.00 |
| 8 | 07/26 | 17:00 | 86 | 65 | 50 | 29.87 | S | 5 | 0.00 |
| 9 | 07/26 | 16:00 | 87 | 66 | 51 | 29.89 | W | 1 | 0.00 |
| 10 | 07/26 | 15:00 | 85 | 68 | 59 | 29.89 | SSE | 2 | 0.00 |
| 11 | 07/26 | 14:00 | 83 | 69 | 64 | 29.90 | NNW | 5 | 0.00 |
| 12 | 07/26 | 13:00 | 81 | 72 | 75 | 29.90 | S | 4 | 0.00 |
| 13 | 07/26 | 12:00 | 78 | 73 | 86 | 29.91 | NW | 3 | 0.00 |
| 14 | 07/26 | 11:00 | 75 | 71 | 89 | 29.90 | SE | 1 | 0.00 |
| 15 | 07/26 | 10:00 | 73 | 71 | 94 | 29.90 | WNW | 6 | 0.00 |
| 16 | 07/26 | 09:00 | 72 | 71 | 97 | 29.89 | SSW | 2 | 0.00 |
| 17 | 07/26 | 08:00 | 70 | 69 | 99 | 29.88 | W | 4 | 0.00 |
| 18 | 07/26 | 07:00 | 70 | 69 | 100 | 29.87 | WSW | 2 | 0.00 |
| 19 | 07/26 | 06:00 | 70 | 69 | 100 | 29.86 | NNW | 2 | 0.00 |
| 20 | 07/26 | 05:00 | 70 | 69 | 99 | 29.85 | SSW | 1 | 0.00 |
| 21 | 07/26 | 04:00 | 70 | 69 | 99 | 29.84 | S | 1 | 0.00 |
| 22 | miss | miss | miss | miss | miss | miss | miss | miss | |
| 23 | 07/26 | 03:46 | 71 | 70 | 99 | 29.84 | S | 2 | 0.00 |
| 24 | miss | miss | miss | miss | miss | miss | miss | miss | |
| 25 | 07/26 | 03:44 | 71 | 70 | 99 | 29.84 | S | 3 | 0.00 |
| 26 | miss | miss | miss | miss | miss | miss | miss | miss | |
| 27 | 07/26 | 03:44 | 71 | 70 | 99 | 29.84 | S | 3 | 0.00 |
| 28 | miss | miss | miss | miss | miss | miss | miss | miss | |
| 29 | 07/26 | 03:44 | 71 | 70 | 99 | 29.84 | S | 3 | 0.00 |
| 30 | miss | miss | miss | miss | miss | miss | miss | miss | |
| 31 | 07/26 | 03:44 | 71 | 70 | 99 | 29.84 | S | 3 | 0.00 |
| 32 | miss | miss | miss | miss | miss | miss | miss | miss | |
| 33 | 07/26 | 03:44 | 71 | 70 | 99 | 29.84 | S | 3 | 0.00 |
| 34 | miss | miss | miss | miss | miss | miss | miss | miss | |
| 35 | 07/26 | 03:44 | 71 | 70 | 99 | 29.84 | S | 3 | 0.00 |
| 36 | miss | miss | miss | miss | miss | miss | miss | miss | |
| 37 | 07/26 | 03:44 | 71 | 70 | 99 | 29.84 | S | 3 | 0.00 |
| 38 | miss | miss | miss | miss | miss | miss | miss | miss | |
| 39 | 07/26 | 03:44 | 71 | 70 | 99 | 29.84 | S | 3 | 0.00 |
| 40 | miss | miss | miss | miss | miss | miss | miss | miss | |
| 41 | 07/26 | 03:44 | 71 | 70 | 99 | 29.84 | S | 3 | 0.00 |
| 42 | miss | miss | miss | miss | miss | miss | miss | miss | |
| 43 | 07/26 | 03:44 | 71 | 70 | 99 | 29.84 | S | 3 | 0.00 |
| 44 | miss | miss | miss | miss | miss | miss | miss | miss | |
| 45 | 07/26 | 03:44 | 71 | 70 | 99 | 29.84 | S | 3 | 0.00 |
| 46 | 07/26 | 03:00 | 71 | 70 | 99 | 29.84 | SW | 1 | 0.00 |
| 47 | 07/26 | 02:00 | 70 | 69 | 100 | 29.84 | W | 2 | 0.00 |
| 48 | 07/26 | 01:00 | 70 | 69 | 100 | 29.84 | S | 1 | 0.01 |
| 49 | 07/26 | 00:00 | 70 | 69 | 100 | 29.85 | SSW | 1 | -0.01 |
| 50 | 07/25 | 23:00 | 70 | 69 | 100 | 29.86 | SW | 2 | 0.14 |
| 51 | 07/25 | 22:00 | 70 | 69 | 99 | 29.88 | S | 1 | 0.03 |
| 52 | 07/25 | 21:00 | 69 | 68 | 98 | 29.87 | S | 4 | 0.37 |
| 53 | 07/25 | 20:00 | 70 | 68 | 95 | 29.87 | SSW | 2 | 0.41 |
| 54 | 07/25 | 19:00 | 76 | 71 | 85 | 29.83 | SE | 2 | 0.07 |
| 55 | 07/25 | 18:00 | 80 | 71 | 76 | 29.83 | ESE | 4 | 0.00 |
| 56 | 07/25 | 17:00 | 81 | 73 | 77 | 29.83 | SW | 2 | 0.00 |
| 57 | 07/25 | 16:00 | 79 | 71 | 79 | 29.85 | SSE | 9 | 0.00 |
| 58 | 07/25 | 15:00 | 79 | 71 | 79 | 29.87 | SSE | 8 | 0.00 |
| 59 | 07/25 | 14:00 | 79 | 71 | 79 | 29.89 | SSE | 5 | 0.00 |
| 60 | 07/25 | 13:00 | 79 | 72 | 81 | 29.91 | SE | 2 | 0.00 |
| 61 | 07/25 | 12:00 | 78 | 72 | 83 | 29.93 | S | 6 | 0.00 |
| 62 | 07/25 | 11:00 | 78 | 72 | 84 | 29.94 | S | 8 | 0.00 |
| 63 | 07/25 | 10:00 | 77 | 73 | 90 | 29.94 | SSE | 8 | 0.00 |
| 64 | 07/25 | 09:00 | 75 | 73 | 95 | 29.94 | SSE | 6 | 0.00 |
| 65 | 07/25 | 08:00 | 75 | 73 | 95 | 29.93 | S | 5 | 0.00 |
| 66 | 07/25 | 07:00 | 74 | 72 | 96 | 29.94 | SSE | 4 | 0.00 |
| 67 | 07/25 | 06:00 | 74 | 72 | 96 | 29.94 | S | 2 | 0.00 |
| 68 | 07/25 | 05:00 | 74 | 73 | 97 | 29.94 | S | 4 | 0.01 |
| 69 | 07/25 | 04:00 | 74 | 73 | 97 | 29.94 | S | 4 | 0.00 |
| 70 | 07/25 | 03:00 | 74 | 72 | 96 | 29.94 | SSE | 3 | 0.00 |
| 71 | 07/25 | 02:00 | 74 | 73 | 97 | 29.96 | SSE | 3 | 0.01 |
| 72 | 07/25 | 01:00 | 74 | 73 | 97 | 29.97 | SE | 7 | 0.12 |
| 73 | 07/25 | 00:00 | 74 | 72 | 96 | 29.99 | SE | 5 | -1.16 |